createdAt,value
2023-02-19T00:00:50.963Z,46.71
2023-02-19T00:01:53.610Z,46.64
2023-02-19T00:02:57.032Z,46.33
2023-02-19T00:04:01.183Z,46.01
2023-02-19T00:05:02.977Z,45.90
2023-02-19T00:06:09.963Z,45.71
2023-02-19T00:07:11.662Z,45.84
2023-02-19T00:08:13.438Z,45.93
2023-02-19T00:09:17.044Z,46.54
2023-02-19T00:10:18.819Z,46.06
2023-02-19T00:11:23.310Z,46.13
2023-02-19T00:12:25.041Z,45.57
2023-02-19T00:13:26.796Z,45.52
2023-02-19T00:14:28.508Z,46.26
2023-02-19T00:15:32.700Z,46.42
2023-02-19T00:16:38.007Z,46.94
2023-02-19T00:17:39.691Z,46.71
2023-02-19T00:18:42.515Z,46.64
2023-02-19T00:19:44.247Z,46.69
2023-02-19T00:20:45.917Z,46.19
2023-02-19T00:21:48.381Z,46.64
2023-02-19T00:22:50.073Z,46.71
2023-02-19T00:24:02.755Z,47.10
2023-02-19T00:25:04.585Z,46.64
2023-02-19T00:26:18.171Z,47.64
2023-02-19T00:27:20.437Z,46.97
2023-02-19T00:28:22.728Z,46.54
2023-02-19T00:29:25.219Z,46.70
2023-02-19T00:30:27.065Z,46.55
2023-02-19T00:31:34.432Z,47.10
2023-02-19T00:32:36.238Z,46.66
2023-02-19T00:33:37.919Z,46.31
2023-02-19T00:34:39.620Z,46.50
2023-02-19T00:35:41.397Z,45.85
2023-02-19T00:36:43.636Z,47.33
2023-02-19T00:37:45.337Z,47.32
2023-02-19T00:38:47.393Z,47.46
2023-02-19T00:39:49.154Z,47.49
2023-02-19T00:40:50.855Z,47.29
2023-02-19T00:41:52.584Z,47.20
2023-02-19T00:42:54.368Z,46.89
2023-02-19T00:43:57.958Z,47.07
2023-02-19T00:44:59.683Z,47.09
2023-02-19T00:46:01.377Z,47.23
2023-02-19T00:47:03.197Z,46.43
2023-02-19T00:48:04.971Z,46.74
2023-02-19T00:49:08.967Z,46.07
2023-02-19T00:50:10.816Z,45.66
2023-02-19T00:51:13.018Z,46.44
2023-02-19T00:52:14.727Z,46.19
2023-02-19T00:53:16.431Z,45.89
2023-02-19T00:54:18.569Z,45.96
2023-02-19T00:55:20.329Z,46.42
2023-02-19T00:56:22.169Z,45.75
2023-02-19T00:57:23.884Z,46.08
2023-02-19T00:58:25.587Z,46.33
2023-02-19T00:59:27.280Z,46.40
2023-02-19T01:00:31.884Z,46.44
2023-02-19T01:01:33.643Z,46.98
2023-02-19T01:02:35.370Z,46.37
2023-02-19T01:03:38.456Z,46.27
2023-02-19T01:04:40.224Z,45.77
2023-02-19T01:05:41.936Z,46.61
2023-02-19T01:06:43.768Z,46.12
2023-02-19T01:07:45.500Z,46.27
2023-02-19T01:08:47.455Z,46.65
2023-02-19T01:09:49.154Z,46.03
2023-02-19T01:10:51.192Z,46.28
2023-02-19T01:11:52.906Z,46.11
2023-02-19T01:12:54.597Z,45.98
2023-02-19T01:14:01.163Z,46.77
2023-02-19T01:15:03.088Z,46.30
2023-02-19T01:16:12.290Z,46.87
2023-02-19T01:17:14.016Z,47.39
2023-02-19T01:18:15.960Z,47.54
2023-02-19T01:19:17.696Z,47.09
2023-02-19T01:20:19.510Z,47.22
2023-02-19T01:21:23.329Z,46.98
2023-02-19T01:22:25.052Z,46.48
2023-02-19T01:23:26.865Z,46.58
2023-02-19T01:24:28.641Z,46.34
2023-02-19T01:25:30.350Z,46.33
2023-02-19T01:26:33.515Z,46.14
2023-02-19T01:27:35.209Z,46.29
2023-02-19T01:28:37.167Z,46.02
2023-02-19T01:29:38.976Z,45.84
2023-02-19T01:30:40.950Z,45.66
2023-02-19T01:31:42.798Z,45.15
2023-02-19T01:32:44.633Z,44.70
2023-02-19T01:33:48.227Z,44.63
2023-02-19T01:34:49.925Z,44.77
2023-02-19T01:35:51.616Z,45.08
2023-02-19T01:36:53.357Z,44.35
2023-02-19T01:37:55.040Z,43.87
2023-02-19T01:38:57.116Z,43.67
2023-02-19T01:39:58.865Z,43.83
2023-02-19T01:41:04.214Z,43.02
2023-02-19T01:42:13.339Z,44.01
2023-02-19T01:43:16.486Z,43.14
2023-02-19T01:44:18.626Z,44.06
2023-02-19T01:45:28.779Z,44.15
2023-02-19T01:46:38.519Z,43.28
2023-02-19T01:47:40.492Z,43.62
2023-02-19T01:48:42.326Z,43.60
2023-02-19T01:49:50.039Z,44.21
2023-02-19T01:51:14.445Z,43.17
2023-02-19T01:52:32.797Z,43.57
2023-02-19T01:53:39.722Z,42.88
2023-02-19T01:54:44.318Z,43.26
2023-02-19T01:55:48.514Z,42.58
2023-02-19T01:56:50.424Z,42.37
2023-02-19T01:57:56.287Z,42.53
2023-02-19T01:58:59.289Z,42.06
2023-02-19T02:00:08.410Z,42.06
2023-02-19T02:01:10.677Z,42.42
2023-02-19T02:02:12.822Z,41.76
2023-02-19T02:03:16.324Z,41.76
2023-02-19T02:04:19.194Z,41.87
2023-02-19T02:05:45.732Z,41.71
2023-02-19T02:06:54.683Z,41.14
2023-02-19T02:08:15.663Z,41.02
2023-02-19T02:09:39.092Z,40.75
2023-02-19T02:10:41.991Z,40.20
2023-02-19T02:11:49.530Z,40.06
2023-02-19T02:12:56.312Z,39.65
2023-02-19T02:13:59.056Z,39.05
2023-02-19T02:15:00.824Z,39.08
2023-02-19T02:16:02.522Z,38.42
2023-02-19T02:17:10.089Z,38.65
2023-02-19T02:18:21.201Z,38.01
2023-02-19T02:20:16.159Z,37.54
2023-02-19T02:21:23.205Z,37.90
2023-02-19T02:22:33.321Z,37.50
2023-02-19T02:24:16.955Z,37.73
2023-02-19T02:25:49.165Z,37.76
2023-02-19T02:27:02.897Z,37.69
2023-02-19T02:28:36.548Z,37.72
2023-02-19T02:30:12.996Z,37.62
2023-02-19T02:31:23.141Z,37.51
2023-02-19T02:32:27.830Z,37.59
2023-02-19T02:33:49.219Z,37.68
2023-02-19T02:34:59.718Z,37.55
2023-02-19T02:36:20.525Z,37.21
2023-02-19T02:37:25.835Z,37.52
2023-02-19T02:38:32.032Z,37.44
2023-02-19T02:39:34.543Z,37.52
2023-02-19T02:40:37.512Z,37.40
2023-02-19T02:42:09.880Z,37.39
2023-02-19T02:43:12.972Z,37.49
2023-02-19T02:44:14.724Z,37.16
2023-02-19T02:45:38.093Z,37.46
2023-02-19T02:46:44.811Z,37.24
2023-02-19T02:47:56.028Z,37.17
2023-02-19T02:48:58.622Z,37.09
2023-02-19T02:50:07.129Z,37.25
2023-02-19T02:51:27.466Z,37.49
2023-02-19T02:52:47.888Z,37.14
2023-02-19T02:54:11.420Z,37.30
2023-02-19T02:55:13.274Z,37.48
2023-02-19T02:56:16.952Z,37.79
2023-02-19T02:57:19.573Z,37.24
2023-02-19T02:58:24.052Z,37.42
2023-02-19T02:59:31.550Z,37.55
2023-02-19T03:00:54.669Z,37.31
2023-02-19T03:02:19.116Z,37.40
2023-02-19T03:03:25.989Z,36.99
2023-02-19T03:05:04.222Z,37.05
2023-02-19T03:06:09.302Z,37.51
2023-02-19T03:07:12.196Z,37.11
2023-02-19T03:08:18.752Z,37.69
2023-02-19T03:09:30.360Z,36.97
2023-02-19T03:10:46.177Z,37.12
2023-02-19T03:12:11.049Z,36.82
2023-02-19T03:13:36.982Z,37.20
2023-02-19T03:15:04.519Z,37.32
2023-02-19T03:16:35.512Z,36.74
2023-02-19T03:18:03.681Z,37.04
2023-02-19T03:19:21.489Z,37.18
2023-02-19T03:20:24.676Z,37.23
2023-02-19T03:21:28.773Z,36.94
2023-02-19T03:22:35.276Z,36.75
2023-02-19T03:23:56.890Z,36.86
2023-02-19T03:25:26.491Z,36.84
2023-02-19T03:26:28.661Z,36.70
2023-02-19T03:27:35.668Z,36.84
2023-02-19T03:28:58.954Z,36.72
2023-02-19T03:30:08.830Z,36.71
2023-02-19T03:31:15.674Z,36.47
2023-02-19T03:32:42.207Z,36.30
2023-02-19T03:33:47.705Z,36.41
2023-02-19T03:34:57.251Z,36.47
2023-02-19T03:36:05.448Z,36.22
2023-02-19T03:37:13.757Z,35.98
2023-02-19T03:38:26.851Z,36.13
2023-02-19T03:39:28.731Z,36.46
2023-02-19T03:40:34.655Z,36.08
2023-02-19T03:41:51.248Z,35.98
2023-02-19T03:43:25.538Z,36.03
2023-02-19T03:44:45.100Z,35.93
2023-02-19T03:45:58.433Z,35.99
2023-02-19T03:47:13.995Z,36.18
2023-02-19T03:48:28.929Z,35.78
2023-02-19T03:49:30.567Z,35.93
2023-02-19T03:51:04.908Z,35.96
2023-02-19T03:52:41.815Z,35.56
2023-02-19T03:53:58.554Z,35.55
2023-02-19T03:55:08.983Z,35.66
2023-02-19T03:56:22.328Z,35.56
2023-02-19T03:57:33.916Z,35.52
2023-02-19T03:58:41.484Z,35.62
2023-02-19T03:59:53.011Z,35.29
2023-02-19T04:00:54.675Z,35.56
2023-02-19T04:02:08.520Z,35.38
2023-02-19T04:03:20.068Z,35.47
2023-02-19T04:04:29.474Z,35.26
2023-02-19T04:05:35.436Z,35.49
2023-02-19T04:06:40.052Z,35.22
2023-02-19T04:07:48.028Z,35.26
2023-02-19T04:08:54.824Z,35.32
2023-02-19T04:09:56.767Z,35.14
2023-02-19T04:11:00.322Z,35.73
2023-02-19T04:12:02.960Z,35.10
2023-02-19T04:13:12.108Z,35.43
2023-02-19T04:14:23.295Z,34.95
2023-02-19T04:15:27.729Z,34.90
2023-02-19T04:16:32.767Z,34.83
2023-02-19T04:18:07.910Z,34.96
2023-02-19T04:19:14.014Z,35.06
2023-02-19T04:20:17.331Z,35.02
2023-02-19T04:21:22.618Z,35.10
2023-02-19T04:22:25.392Z,34.93
2023-02-19T04:23:30.789Z,34.94
2023-02-19T04:24:38.583Z,35.28
2023-02-19T04:25:44.073Z,35.06
2023-02-19T04:26:46.554Z,34.99
2023-02-19T04:27:48.268Z,35.12
2023-02-19T04:28:49.988Z,35.05
2023-02-19T04:29:51.713Z,35.02
2023-02-19T04:30:53.459Z,35.02
2023-02-19T04:31:55.256Z,35.32
2023-02-19T04:32:56.948Z,35.27
2023-02-19T04:33:58.660Z,35.23
2023-02-19T04:35:00.499Z,35.13
2023-02-19T04:36:02.303Z,35.25
2023-02-19T04:37:04.245Z,35.36
2023-02-19T04:38:06.077Z,35.52
2023-02-19T04:39:08.760Z,35.73
2023-02-19T04:40:10.873Z,35.43
2023-02-19T04:41:13.036Z,35.36
2023-02-19T04:42:14.893Z,35.68
2023-02-19T04:43:16.636Z,35.42
2023-02-19T04:44:18.337Z,35.09
2023-02-19T04:45:20.082Z,35.42
2023-02-19T04:46:21.961Z,35.35
2023-02-19T04:47:23.728Z,35.19
2023-02-19T04:48:25.424Z,35.33
2023-02-19T04:49:27.145Z,35.52
2023-02-19T04:50:28.989Z,35.72
2023-02-19T04:51:30.740Z,35.58
2023-02-19T04:52:33.432Z,35.22
2023-02-19T04:53:36.269Z,35.47
2023-02-19T04:54:38.187Z,35.53
2023-02-19T04:55:39.956Z,35.31
2023-02-19T04:56:41.644Z,35.52
2023-02-19T04:57:43.419Z,35.76
2023-02-19T04:58:45.803Z,35.47
2023-02-19T04:59:47.591Z,35.66
2023-02-19T05:00:53.387Z,35.80
2023-02-19T05:01:55.231Z,35.63
2023-02-19T05:02:56.948Z,35.53
2023-02-19T05:03:58.679Z,35.62
2023-02-19T05:05:00.397Z,35.48
2023-02-19T05:06:07.436Z,35.22
2023-02-19T05:07:09.268Z,35.51
2023-02-19T05:08:10.942Z,35.52
2023-02-19T05:09:12.703Z,35.63
2023-02-19T05:10:14.408Z,35.53
2023-02-19T05:11:16.094Z,35.48
2023-02-19T05:12:17.858Z,35.39
2023-02-19T05:13:19.612Z,35.60
2023-02-19T05:14:21.457Z,35.27
2023-02-19T05:15:23.142Z,35.44
2023-02-19T05:16:25.381Z,35.10
2023-02-19T05:17:27.143Z,35.24
2023-02-19T05:18:30.273Z,35.45
2023-02-19T05:19:32.108Z,35.62
2023-02-19T05:20:33.827Z,35.44
2023-02-19T05:21:35.516Z,35.50
2023-02-19T05:22:37.222Z,35.84
2023-02-19T05:23:39.608Z,35.76
2023-02-19T05:24:41.415Z,35.92
2023-02-19T05:25:43.133Z,35.52
2023-02-19T05:26:45.558Z,35.60
2023-02-19T05:27:47.353Z,35.63
2023-02-19T05:28:51.627Z,35.79
2023-02-19T05:29:53.372Z,35.84
2023-02-19T05:30:56.845Z,35.61
2023-02-19T05:31:58.622Z,35.76
2023-02-19T05:33:00.306Z,35.63
2023-02-19T05:34:02.204Z,36.03
2023-02-19T05:35:04.392Z,36.10
2023-02-19T05:36:08.733Z,36.05
2023-02-19T05:37:10.535Z,35.64
2023-02-19T05:38:12.405Z,35.84
2023-02-19T05:39:14.308Z,35.84
2023-02-19T05:40:16.061Z,35.99
2023-02-19T05:41:20.977Z,36.04
2023-02-19T05:42:22.733Z,35.68
2023-02-19T05:43:24.419Z,35.76
2023-02-19T05:44:26.299Z,35.95
2023-02-19T05:45:28.054Z,35.79
2023-02-19T05:46:30.255Z,35.53
2023-02-19T05:47:32.030Z,35.07
2023-02-19T05:48:34.181Z,34.61
2023-02-19T05:49:36.007Z,34.38
2023-02-19T05:50:39.693Z,34.21
2023-02-19T05:51:41.613Z,34.47
2023-02-19T05:52:44.332Z,33.66
2023-02-19T05:53:46.741Z,33.66
2023-02-19T05:54:48.481Z,33.87
2023-02-19T05:55:50.171Z,34.06
2023-02-19T05:56:51.907Z,33.59
2023-02-19T05:57:53.665Z,33.01
2023-02-19T05:58:55.727Z,32.84
2023-02-19T05:59:57.522Z,33.57
2023-02-19T06:00:59.228Z,32.76
2023-02-19T06:02:00.989Z,32.69
2023-02-19T06:03:02.843Z,32.64
2023-02-19T06:04:04.816Z,32.51
2023-02-19T06:05:07.399Z,32.76
2023-02-19T06:06:13.123Z,32.34
2023-02-19T06:07:14.837Z,32.09
2023-02-19T06:08:16.750Z,32.08
2023-02-19T06:09:18.457Z,31.95
2023-02-19T06:10:20.236Z,31.99
2023-02-19T06:11:22.127Z,32.46
2023-02-19T06:12:24.106Z,32.16
2023-02-19T06:13:25.809Z,31.96
2023-02-19T06:14:27.504Z,32.07
2023-02-19T06:15:29.197Z,31.71
2023-02-19T06:16:32.353Z,31.39
2023-02-19T06:17:34.723Z,31.63
2023-02-19T06:18:36.438Z,31.43
2023-02-19T06:19:38.220Z,31.42
2023-02-19T06:20:40.003Z,31.67
2023-02-19T06:21:41.781Z,31.56
2023-02-19T06:22:43.635Z,31.18
2023-02-19T06:23:45.915Z,31.69
2023-02-19T06:24:48.329Z,31.52
2023-02-19T06:25:50.016Z,31.48
2023-02-19T06:26:51.731Z,31.16
2023-02-19T06:27:53.447Z,31.48
2023-02-19T06:28:55.221Z,31.66
2023-02-19T06:29:56.938Z,31.15
2023-02-19T06:30:59.388Z,31.49
2023-02-19T06:32:01.482Z,31.44
2023-02-19T06:33:03.340Z,31.68
2023-02-19T06:34:05.758Z,31.40
2023-02-19T06:35:07.825Z,31.73
2023-02-19T06:36:17.691Z,31.29
2023-02-19T06:37:19.501Z,31.45
2023-02-19T06:38:22.317Z,31.21
2023-02-19T06:39:24.109Z,31.85
2023-02-19T06:40:25.841Z,31.34
2023-02-19T06:41:27.618Z,31.38
2023-02-19T06:42:32.818Z,31.59
2023-02-19T06:43:35.218Z,31.39
2023-02-19T06:44:36.935Z,31.60
2023-02-19T06:45:38.633Z,31.02
2023-02-19T06:46:40.393Z,31.21
2023-02-19T06:47:42.165Z,31.52
2023-02-19T06:48:45.342Z,31.37
2023-02-19T06:49:47.008Z,30.80
2023-02-19T06:50:48.718Z,30.85
2023-02-19T06:51:50.421Z,31.43
2023-02-19T06:52:52.134Z,31.15
2023-02-19T06:53:53.897Z,31.07
2023-02-19T06:54:55.583Z,31.32
2023-02-19T06:56:01.111Z,31.11
2023-02-19T06:57:03.422Z,30.66
2023-02-19T06:58:05.126Z,30.73
2023-02-19T06:59:12.907Z,30.59
2023-02-19T07:00:14.892Z,30.71
2023-02-19T07:01:16.693Z,31.07
2023-02-19T07:02:18.474Z,30.29
2023-02-19T07:03:20.562Z,30.83
2023-02-19T07:04:22.341Z,30.79
2023-02-19T07:05:24.077Z,30.54
2023-02-19T07:06:26.738Z,30.67
2023-02-19T07:07:28.439Z,31.37
2023-02-19T07:08:30.800Z,30.62
2023-02-19T07:09:32.599Z,30.97
2023-02-19T07:10:34.275Z,30.41
2023-02-19T07:11:38.297Z,30.55
2023-02-19T07:12:40.036Z,30.54
2023-02-19T07:13:41.806Z,30.48
2023-02-19T07:14:43.556Z,29.92
2023-02-19T07:15:45.256Z,30.32
2023-02-19T07:16:47.646Z,30.05
2023-02-19T07:17:49.357Z,29.59
2023-02-19T07:18:51.128Z,29.68
2023-02-19T07:19:52.894Z,29.65
2023-02-19T07:20:54.598Z,29.41
2023-02-19T07:21:56.322Z,29.08
2023-02-19T07:22:58.023Z,28.88
2023-02-19T07:23:59.722Z,28.82
2023-02-19T07:25:01.416Z,28.55
2023-02-19T07:26:03.511Z,28.48
2023-02-19T07:27:05.226Z,28.13
2023-02-19T07:28:07.514Z,28.29
2023-02-19T07:29:10.314Z,27.74
2023-02-19T07:30:12.385Z,27.82
2023-02-19T07:31:18.796Z,28.73
2023-02-19T07:32:20.624Z,28.04
2023-02-19T07:33:22.307Z,27.61
2023-02-19T07:34:24.005Z,27.89
2023-02-19T07:35:25.768Z,28.01
2023-02-19T07:36:27.477Z,27.97
2023-02-19T07:37:29.170Z,27.62
2023-02-19T07:38:30.936Z,27.90
2023-02-19T07:39:32.615Z,27.10
2023-02-19T07:40:34.769Z,27.50
2023-02-19T07:41:36.461Z,27.12
2023-02-19T07:42:38.183Z,27.28
2023-02-19T07:43:40.735Z,26.44
2023-02-19T07:44:42.468Z,27.26
2023-02-19T07:45:44.249Z,27.01
2023-02-19T07:46:46.073Z,27.02
2023-02-19T07:47:47.766Z,27.01
2023-02-19T07:48:49.504Z,26.70
2023-02-19T07:49:51.203Z,26.94
2023-02-19T07:50:57.460Z,27.10
2023-02-19T07:51:59.145Z,26.95
2023-02-19T07:53:00.872Z,26.97
2023-02-19T07:54:02.626Z,26.96
2023-02-19T07:55:04.459Z,26.97
2023-02-19T07:56:08.036Z,27.38
2023-02-19T07:57:09.757Z,27.08
2023-02-19T07:58:11.514Z,27.82
2023-02-19T07:59:13.290Z,26.57
2023-02-19T08:00:15.328Z,26.64
2023-02-19T08:01:39.988Z,25.94
2023-02-19T08:03:00.092Z,25.89
2023-02-19T08:04:01.882Z,25.58
2023-02-19T08:05:04.290Z,26.06
2023-02-19T08:06:06.388Z,26.29
2023-02-19T08:07:08.123Z,25.37
2023-02-19T08:08:12.495Z,25.97
2023-02-19T08:09:14.235Z,25.00
2023-02-19T08:10:34.651Z,24.65
2023-02-19T08:11:55.216Z,24.86
2023-02-19T08:13:19.359Z,25.30
2023-02-19T08:14:25.361Z,25.35
2023-02-19T08:15:27.262Z,24.03
2023-02-19T08:16:42.217Z,24.21
2023-02-19T08:17:44.884Z,24.01
2023-02-19T08:18:48.034Z,24.04
2023-02-19T08:19:49.744Z,24.17
2023-02-19T08:20:51.722Z,24.42
2023-02-19T08:21:53.760Z,24.56
2023-02-19T08:22:55.489Z,24.83
2023-02-19T08:23:57.252Z,24.35
2023-02-19T08:24:58.961Z,24.78
2023-02-19T08:26:02.487Z,24.47
2023-02-19T08:27:04.299Z,24.59
2023-02-19T08:28:07.198Z,24.88
2023-02-19T08:29:08.916Z,24.78
2023-02-19T08:30:11.114Z,25.41
2023-02-19T08:31:13.699Z,24.75
2023-02-19T08:32:15.690Z,25.22
2023-02-19T08:33:19.248Z,24.79
2023-02-19T08:34:20.950Z,24.78
2023-02-19T08:35:23.039Z,23.93
2023-02-19T08:36:24.781Z,24.70
2023-02-19T08:37:26.480Z,24.64
2023-02-19T08:38:28.193Z,22.64
2023-02-19T08:39:29.879Z,22.81
2023-02-19T08:40:32.102Z,23.14
2023-02-19T08:41:33.851Z,22.99
2023-02-19T08:42:35.542Z,22.36
2023-02-19T08:43:37.641Z,23.42
2023-02-19T08:44:39.357Z,22.49
2023-02-19T08:45:43.395Z,22.97
2023-02-19T08:46:45.128Z,21.59
2023-02-19T08:47:46.916Z,21.36
2023-02-19T08:48:48.699Z,21.06
2023-02-19T08:49:50.382Z,21.37
2023-02-19T08:51:04.363Z,21.74
2023-02-19T08:52:06.107Z,22.15
2023-02-19T08:53:07.920Z,22.04
2023-02-19T08:54:09.618Z,20.89
2023-02-19T08:55:11.347Z,20.75
2023-02-19T08:56:16.002Z,21.30
2023-02-19T08:57:17.883Z,21.34
2023-02-19T08:58:19.601Z,21.23
2023-02-19T08:59:21.349Z,20.96
2023-02-19T09:00:23.327Z,21.35
2023-02-19T09:01:25.206Z,21.57
2023-02-19T09:02:26.978Z,21.69
2023-02-19T09:03:28.737Z,21.84
2023-02-19T09:04:30.633Z,21.82
2023-02-19T09:05:32.413Z,22.35
2023-02-19T09:06:34.237Z,22.34
2023-02-19T09:07:35.934Z,22.57
2023-02-19T09:08:37.681Z,22.00
2023-02-19T09:09:40.391Z,21.92
2023-02-19T09:10:42.140Z,21.63
2023-02-19T09:11:43.956Z,22.11
2023-02-19T09:12:45.655Z,21.57
2023-02-19T09:13:47.388Z,20.78
2023-02-19T09:14:49.334Z,21.26
2023-02-19T09:15:51.104Z,21.90
2023-02-19T09:16:52.844Z,20.68
2023-02-19T09:17:54.548Z,20.55
2023-02-19T09:18:56.238Z,20.94
2023-02-19T09:19:57.973Z,20.16
2023-02-19T09:21:01.819Z,19.64
2023-02-19T09:22:05.047Z,20.19
2023-02-19T09:23:06.759Z,20.10
2023-02-19T09:24:11.218Z,20.63
2023-02-19T09:25:12.978Z,20.10
2023-02-19T09:26:14.726Z,19.98
2023-02-19T09:27:18.466Z,20.52
2023-02-19T09:28:21.148Z,20.77
2023-02-19T09:29:25.620Z,21.04
2023-02-19T09:30:27.377Z,21.11
2023-02-19T09:31:29.245Z,21.60
2023-02-19T09:32:32.099Z,21.00
2023-02-19T09:33:33.916Z,20.95
2023-02-19T09:34:35.650Z,20.45
2023-02-19T09:35:40.677Z,20.44
2023-02-19T09:36:42.519Z,20.93
2023-02-19T09:37:44.344Z,21.22
2023-02-19T09:38:46.200Z,20.98
2023-02-19T09:39:47.909Z,21.34
2023-02-19T09:40:49.814Z,20.31
2023-02-19T09:42:16.843Z,21.00
2023-02-19T09:43:22.470Z,19.68
2023-02-19T09:44:29.048Z,20.13
2023-02-19T09:45:30.767Z,20.92
2023-02-19T09:46:46.388Z,20.87
2023-02-19T09:47:48.329Z,19.79
2023-02-19T09:48:51.249Z,20.59
2023-02-19T09:49:56.606Z,20.35
2023-02-19T09:51:01.771Z,19.69
2023-02-19T09:52:12.285Z,19.40
2023-02-19T09:53:40.840Z,19.94
2023-02-19T09:54:43.640Z,19.49
2023-02-19T09:55:45.452Z,19.14
2023-02-19T09:56:47.670Z,19.99
2023-02-19T09:57:51.235Z,20.09
2023-02-19T09:58:56.312Z,20.14
2023-02-19T10:00:09.108Z,20.23
2023-02-19T10:01:13.523Z,20.04
2023-02-19T10:02:21.985Z,19.55
2023-02-19T10:03:31.024Z,19.52
2023-02-19T10:04:32.828Z,19.56
2023-02-19T10:05:35.316Z,19.74
2023-02-19T10:06:38.142Z,19.74
2023-02-19T10:07:52.454Z,19.63
2023-02-19T10:09:13.758Z,18.92
2023-02-19T10:10:15.409Z,19.00
2023-02-19T10:11:18.842Z,19.45
2023-02-19T10:12:27.258Z,19.51
2023-02-19T10:13:49.309Z,19.52
2023-02-19T10:14:54.050Z,19.00
2023-02-19T10:16:01.915Z,18.63
2023-02-19T10:17:05.808Z,18.98
2023-02-19T10:18:09.481Z,19.61
2023-02-19T10:19:14.490Z,19.41
2023-02-19T10:20:20.121Z,18.64
2023-02-19T10:21:27.365Z,19.18
2023-02-19T10:22:30.135Z,19.77
2023-02-19T10:23:32.620Z,19.63
2023-02-19T10:24:34.929Z,19.19
2023-02-19T10:25:45.052Z,19.78
2023-02-19T10:26:47.122Z,20.26
2023-02-19T10:27:49.500Z,20.04
2023-02-19T10:28:51.260Z,19.50
2023-02-19T10:29:52.966Z,18.85
2023-02-19T10:30:58.418Z,19.03
2023-02-19T10:32:13.721Z,18.29
2023-02-19T10:33:16.933Z,18.87
2023-02-19T10:34:22.360Z,18.60
2023-02-19T10:35:24.185Z,18.37
2023-02-19T10:36:52.744Z,18.13
2023-02-19T10:37:54.710Z,18.20
2023-02-19T10:38:57.544Z,18.83
2023-02-19T10:39:59.400Z,18.28
2023-02-19T10:41:14.863Z,18.69
2023-02-19T10:42:22.435Z,18.79
2023-02-19T10:43:33.983Z,18.89
2023-02-19T10:44:43.815Z,19.09
2023-02-19T10:45:53.110Z,18.36
2023-02-19T10:46:59.441Z,18.84
2023-02-19T10:48:01.488Z,18.71
2023-02-19T10:49:18.941Z,18.45
2023-02-19T10:50:28.317Z,18.06
2023-02-19T10:51:41.365Z,19.03
2023-02-19T10:52:43.780Z,18.27
2023-02-19T10:53:48.649Z,18.35
2023-02-19T10:54:53.443Z,18.12
2023-02-19T10:56:15.463Z,18.46
2023-02-19T10:57:21.296Z,18.79
2023-02-19T10:58:30.472Z,19.57
2023-02-19T10:59:32.156Z,19.03
2023-02-19T11:00:33.842Z,17.89
2023-02-19T11:01:35.582Z,18.20
2023-02-19T11:02:37.304Z,18.13
2023-02-19T11:03:39.283Z,18.79
2023-02-19T11:04:41.057Z,18.37
2023-02-19T11:06:01.379Z,18.43
2023-02-19T11:07:16.685Z,18.90
2023-02-19T11:08:22.542Z,17.69
2023-02-19T11:09:28.869Z,17.89
2023-02-19T11:10:38.805Z,18.34
2023-02-19T11:11:40.839Z,19.16
2023-02-19T11:12:49.353Z,19.02
2023-02-19T11:13:51.468Z,18.87
2023-02-19T11:14:53.493Z,19.11
2023-02-19T11:15:55.983Z,18.04
2023-02-19T11:17:00.167Z,18.61
2023-02-19T11:18:07.932Z,18.01
2023-02-19T11:19:21.492Z,18.27
2023-02-19T11:20:23.950Z,18.50
2023-02-19T11:21:33.649Z,19.06
2023-02-19T11:22:43.111Z,18.88
2023-02-19T11:23:46.971Z,18.16
2023-02-19T11:24:52.095Z,18.69
2023-02-19T11:25:57.525Z,18.03
2023-02-19T11:27:00.709Z,19.07
2023-02-19T11:28:18.347Z,18.62
2023-02-19T11:29:23.293Z,18.05
2023-02-19T11:30:32.632Z,18.66
2023-02-19T11:31:36.327Z,18.55
2023-02-19T11:32:38.088Z,18.81
2023-02-19T11:33:53.586Z,18.78
2023-02-19T11:35:22.667Z,19.04
2023-02-19T11:36:36.199Z,19.45
2023-02-19T11:37:57.361Z,19.60
2023-02-19T11:39:02.707Z,18.70
2023-02-19T11:40:05.159Z,19.21
2023-02-19T11:41:47.499Z,19.28
2023-02-19T11:42:59.935Z,19.35
2023-02-19T11:44:16.904Z,19.09
2023-02-19T11:45:36.444Z,19.78
2023-02-19T11:47:13.233Z,18.90
2023-02-19T11:48:19.365Z,19.76
2023-02-19T11:49:39.099Z,19.47
2023-02-19T11:51:05.159Z,19.75
2023-02-19T11:52:44.418Z,20.04
2023-02-19T11:53:49.862Z,20.24
2023-02-19T11:55:11.115Z,19.71
2023-02-19T11:56:16.068Z,20.34
2023-02-19T11:57:39.330Z,20.92
2023-02-19T11:59:05.399Z,20.69
2023-02-19T12:00:18.873Z,20.88
2023-02-19T12:01:44.577Z,20.92
2023-02-19T12:02:49.685Z,20.85
2023-02-19T12:04:17.523Z,20.36
2023-02-19T12:05:31.149Z,20.99
2023-02-19T12:06:47.398Z,20.55
2023-02-19T12:08:04.292Z,21.25
2023-02-19T12:09:22.888Z,21.12
2023-02-19T12:10:47.758Z,20.33
2023-02-19T12:12:07.755Z,20.21
2023-02-19T12:13:18.141Z,19.73
2023-02-19T12:14:47.690Z,19.85
2023-02-19T12:16:17.119Z,19.83
2023-02-19T12:17:43.656Z,20.00
2023-02-19T12:19:14.619Z,20.74
2023-02-19T12:20:29.616Z,21.06
2023-02-19T12:22:04.094Z,19.79
2023-02-19T12:23:24.067Z,20.22
2023-02-19T12:25:05.079Z,20.40
2023-02-19T12:26:28.456Z,20.28
2023-02-19T12:27:45.410Z,20.19
2023-02-19T12:29:16.454Z,20.24
2023-02-19T12:30:32.894Z,20.30
2023-02-19T12:31:54.879Z,20.47
2023-02-19T12:33:23.123Z,20.40
2023-02-19T12:34:30.830Z,20.57
2023-02-19T12:35:58.273Z,20.42
2023-02-19T12:37:33.769Z,20.38
2023-02-19T12:38:57.097Z,20.27
2023-02-19T12:40:21.752Z,21.05
2023-02-19T12:41:49.273Z,20.78
2023-02-19T12:42:59.742Z,20.67
2023-02-19T12:44:28.156Z,20.92
2023-02-19T12:45:39.659Z,20.12
2023-02-19T12:47:01.490Z,20.20
2023-02-19T12:48:12.399Z,20.47
2023-02-19T12:49:26.443Z,20.99
2023-02-19T12:50:29.793Z,21.13
2023-02-19T12:51:37.534Z,20.97
2023-02-19T12:52:43.179Z,21.02
2023-02-19T12:54:00.131Z,20.86
2023-02-19T12:55:19.852Z,20.93
2023-02-19T12:56:24.200Z,21.09
2023-02-19T12:57:34.067Z,20.64
2023-02-19T12:58:44.439Z,20.82
2023-02-19T13:00:16.468Z,20.64
2023-02-19T13:01:27.055Z,20.62
2023-02-19T13:02:54.373Z,20.58
2023-02-19T13:04:14.305Z,20.80
2023-02-19T13:05:21.268Z,20.65
2023-02-19T13:06:40.046Z,20.22
2023-02-19T13:07:47.070Z,20.64
2023-02-19T13:09:07.536Z,20.52
2023-02-19T13:10:35.799Z,20.67
2023-02-19T13:12:07.447Z,20.79
2023-02-19T13:13:42.773Z,20.74
2023-02-19T13:14:49.195Z,20.89
2023-02-19T13:15:56.492Z,21.13
2023-02-19T13:17:04.151Z,21.13
2023-02-19T13:18:14.532Z,20.55
2023-02-19T13:19:16.286Z,20.99
2023-02-19T13:20:34.678Z,21.38
2023-02-19T13:21:56.939Z,21.19
2023-02-19T13:23:25.618Z,21.62
2023-02-19T13:24:33.143Z,20.29
2023-02-19T13:26:15.000Z,21.17
2023-02-19T13:27:43.830Z,21.00
2023-02-19T13:29:00.609Z,20.74
2023-02-19T13:30:35.114Z,20.98
2023-02-19T13:32:03.091Z,21.26
2023-02-19T13:33:39.730Z,20.31
2023-02-19T13:34:54.837Z,21.22
2023-02-19T13:36:06.241Z,20.51
2023-02-19T13:37:09.814Z,20.53
2023-02-19T13:38:13.235Z,20.91
2023-02-19T13:39:17.467Z,21.38
2023-02-19T13:40:25.225Z,20.75
2023-02-19T13:41:31.285Z,20.79
2023-02-19T13:42:37.002Z,20.77
2023-02-19T13:43:38.989Z,20.72
2023-02-19T13:44:41.594Z,20.38
2023-02-19T13:45:46.948Z,21.03
2023-02-19T13:46:50.616Z,20.66
2023-02-19T13:47:55.127Z,21.15
2023-02-19T13:49:24.804Z,21.13
2023-02-19T13:50:29.818Z,20.24
2023-02-19T13:51:34.377Z,20.47
2023-02-19T13:52:38.740Z,21.08
2023-02-19T13:53:45.979Z,21.72
2023-02-19T13:54:47.828Z,20.53
2023-02-19T13:55:52.721Z,20.09
2023-02-19T13:57:19.517Z,20.13
2023-02-19T13:58:33.138Z,21.42
2023-02-19T13:59:40.522Z,20.54
2023-02-19T14:00:52.328Z,20.78
2023-02-19T14:01:57.087Z,21.11
2023-02-19T14:03:41.048Z,20.74
2023-02-19T14:04:52.027Z,21.04
2023-02-19T14:05:58.184Z,20.43
2023-02-19T14:07:05.968Z,20.47
2023-02-19T14:08:09.154Z,22.14
2023-02-19T14:09:45.908Z,22.24
2023-02-19T14:10:57.947Z,23.77
2023-02-19T14:12:15.055Z,24.49
2023-02-19T14:13:51.451Z,21.75
2023-02-19T14:14:57.304Z,21.24
2023-02-19T14:15:59.131Z,21.63
2023-02-19T14:17:04.920Z,21.03
2023-02-19T14:18:45.402Z,21.03
2023-02-19T14:20:00.615Z,21.90
2023-02-19T14:21:18.437Z,23.05
2023-02-19T14:22:57.017Z,22.76
2023-02-19T14:24:00.263Z,22.47
2023-02-19T14:25:07.444Z,21.52
2023-02-19T14:26:09.516Z,22.04
2023-02-19T14:27:11.390Z,23.24
2023-02-19T14:28:35.715Z,22.17